createdAt,value
2023-02-02T00:00:36.350Z,1012.55
2023-02-02T00:01:16.866Z,1012.53
2023-02-02T00:01:57.369Z,1012.53
2023-02-02T00:02:37.938Z,1012.53
2023-02-02T00:03:18.430Z,1012.5
2023-02-02T00:03:59.060Z,1012.61
2023-02-02T00:04:39.524Z,1012.59
2023-02-02T00:05:20.004Z,1012.58
2023-02-02T00:06:00.529Z,1012.62
2023-02-02T00:06:41.066Z,1012.6
2023-02-02T00:07:21.607Z,1012.56
2023-02-02T00:08:02.126Z,1012.59
2023-02-02T00:08:42.657Z,1012.61
2023-02-02T00:09:23.226Z,1012.65
2023-02-02T00:10:03.763Z,1012.55
2023-02-02T00:10:44.306Z,1012.49
2023-02-02T00:11:24.824Z,1012.55
2023-02-02T00:12:05.378Z,1012.57
2023-02-02T00:12:45.867Z,1012.51
2023-02-02T00:13:26.412Z,1012.56
2023-02-02T00:15:39.456Z,1012.64
2023-02-02T00:16:19.990Z,1012.57
2023-02-02T00:17:00.502Z,1012.62
2023-02-02T00:17:41.043Z,1012.69
2023-02-02T00:18:21.578Z,1012.56
2023-02-02T00:20:34.668Z,1012.61
2023-02-02T00:21:15.170Z,1012.58
2023-02-02T00:21:55.704Z,1012.64
2023-02-02T00:22:36.208Z,1012.67
2023-02-02T00:23:16.722Z,1012.67
2023-02-02T00:25:29.784Z,1012.71
2023-02-02T00:26:10.330Z,1012.64
2023-02-02T00:26:51.692Z,1012.69
2023-02-02T00:27:32.229Z,1012.7
2023-02-02T00:28:12.742Z,1012.76
2023-02-02T00:28:53.292Z,1012.7
2023-02-02T00:29:33.844Z,1012.78
2023-02-02T00:30:14.393Z,1012.75
2023-02-02T00:30:54.968Z,1012.7
2023-02-02T00:31:35.505Z,1012.81
2023-02-02T00:32:15.975Z,1012.76
2023-02-02T00:32:56.509Z,1012.7
2023-02-02T00:33:37.098Z,1012.79
2023-02-02T00:34:17.618Z,1012.76
2023-02-02T00:34:58.728Z,1012.87
2023-02-02T00:35:39.747Z,1012.77
2023-02-02T00:36:20.304Z,1012.81
2023-02-02T00:37:00.887Z,1012.79
2023-02-02T00:37:41.432Z,1012.8
2023-02-02T00:39:54.493Z,1012.82
2023-02-02T00:40:35.014Z,1012.8
2023-02-02T00:41:15.565Z,1012.83
2023-02-02T00:41:56.073Z,1012.83
2023-02-02T00:44:09.149Z,1012.72
2023-02-02T00:44:51.314Z,1012.69
2023-02-02T00:45:32.742Z,1012.78
2023-02-02T00:46:14.134Z,1012.74
2023-02-02T00:48:27.187Z,1012.72
2023-02-02T00:49:07.739Z,1012.67
2023-02-02T00:49:48.223Z,1012.71
2023-02-02T00:50:28.788Z,1012.73
2023-02-02T00:51:09.279Z,1012.71
2023-02-02T00:51:49.784Z,1012.74
2023-02-02T00:52:30.343Z,1012.68
2023-02-02T00:53:10.837Z,1012.68
2023-02-02T00:53:51.373Z,1012.68
2023-02-02T00:54:31.893Z,1012.7
2023-02-02T00:55:12.372Z,1012.68
2023-02-02T00:55:52.926Z,1012.63
2023-02-02T00:56:33.439Z,1012.68
2023-02-02T00:57:13.971Z,1012.7
2023-02-02T00:57:54.479Z,1012.69
2023-02-02T00:58:35.019Z,1012.72
2023-02-02T00:59:15.548Z,1012.69
2023-02-02T00:59:56.130Z,1012.67
2023-02-02T01:00:36.618Z,1012.66
2023-02-02T01:01:17.311Z,1012.64
2023-02-02T01:01:57.762Z,1012.72
2023-02-02T01:02:38.253Z,1012.58
2023-02-02T01:03:18.779Z,1012.68
2023-02-02T01:05:31.792Z,1012.66
2023-02-02T01:06:12.302Z,1012.67
2023-02-02T01:06:52.847Z,1012.77
2023-02-02T01:07:33.507Z,1012.67
2023-02-02T01:08:14.063Z,1012.72
2023-02-02T01:08:54.650Z,1012.64
2023-02-02T01:09:35.168Z,1012.7
2023-02-02T01:10:15.695Z,1012.75
2023-02-02T01:10:56.265Z,1012.73
2023-02-02T01:11:37.555Z,1012.76
2023-02-02T01:12:18.119Z,1012.75
2023-02-02T01:12:58.665Z,1012.75
2023-02-02T01:13:39.186Z,1012.8
2023-02-02T01:14:19.679Z,1012.73
2023-02-02T01:15:00.182Z,1012.78
2023-02-02T01:15:40.733Z,1012.84
2023-02-02T01:16:21.327Z,1012.8
2023-02-02T01:17:01.766Z,1012.79
2023-02-02T01:17:42.286Z,1012.83
2023-02-02T01:18:22.841Z,1012.86
2023-02-02T01:19:03.368Z,1012.9
2023-02-02T01:19:43.939Z,1012.85
2023-02-02T01:20:25.191Z,1012.92
2023-02-02T01:21:05.785Z,1012.83
2023-02-02T01:21:46.316Z,1012.86
2023-02-02T01:22:26.861Z,1012.9
2023-02-02T01:23:08.211Z,1012.95
2023-02-02T01:23:48.761Z,1012.96
2023-02-02T01:24:29.312Z,1012.99
2023-02-02T01:25:09.913Z,1013.02
2023-02-02T01:25:52.182Z,1012.94
2023-02-02T01:26:32.843Z,1012.92
2023-02-02T01:27:13.376Z,1012.95
2023-02-02T01:27:53.910Z,1013.03
2023-02-02T01:28:34.448Z,1012.99
2023-02-02T01:29:14.961Z,1013
2023-02-02T01:29:55.480Z,1013.07
2023-02-02T01:30:36.055Z,1012.98
2023-02-02T01:31:17.062Z,1013.03
2023-02-02T01:31:57.621Z,1012.96
2023-02-02T01:32:38.073Z,1013.01
2023-02-02T01:33:18.577Z,1012.96
2023-02-02T01:33:59.138Z,1012.9
2023-02-02T01:34:39.672Z,1012.99
2023-02-02T01:35:20.911Z,1012.98
2023-02-02T01:36:01.454Z,1012.91
2023-02-02T01:36:42.074Z,1012.96
2023-02-02T01:37:23.564Z,1012.89
2023-02-02T01:38:04.109Z,1012.93
2023-02-02T01:38:44.653Z,1012.94
2023-02-02T01:39:25.174Z,1012.93
2023-02-02T01:40:05.691Z,1012.87
2023-02-02T01:40:46.221Z,1012.93
2023-02-02T01:41:27.687Z,1012.88
2023-02-02T01:42:09.187Z,1012.94
2023-02-02T01:42:49.741Z,1012.92
2023-02-02T01:43:30.365Z,1012.91
2023-02-02T01:44:10.872Z,1012.89
2023-02-02T01:44:51.384Z,1012.91
2023-02-02T01:45:31.964Z,1012.97
2023-02-02T01:46:12.598Z,1012.82
2023-02-02T01:46:53.071Z,1012.86
2023-02-02T01:49:06.155Z,1012.74
2023-02-02T01:49:46.676Z,1012.85
2023-02-02T01:50:27.231Z,1012.81
2023-02-02T01:51:07.819Z,1012.84
2023-02-02T01:53:20.869Z,1012.75
2023-02-02T01:54:01.382Z,1012.86
2023-02-02T01:54:41.928Z,1012.86
2023-02-02T01:55:22.620Z,1012.82
2023-02-02T01:56:03.037Z,1012.84
2023-02-02T01:56:43.580Z,1012.83
2023-02-02T01:57:24.122Z,1012.85
2023-02-02T01:59:38.791Z,1012.7
2023-02-02T02:00:19.366Z,1012.78
2023-02-02T02:01:01.692Z,1012.58
2023-02-02T02:01:44.008Z,1012.72
2023-02-02T02:03:59.289Z,1012.72
2023-02-02T02:04:39.821Z,1012.66
2023-02-02T02:05:21.013Z,1012.66
2023-02-02T02:06:01.579Z,1012.6
2023-02-02T02:06:42.113Z,1012.65
2023-02-02T02:07:22.667Z,1012.7
2023-02-02T02:08:03.223Z,1012.6
2023-02-02T02:08:43.749Z,1012.68
2023-02-02T02:09:24.260Z,1012.65
2023-02-02T02:10:04.778Z,1012.66
2023-02-02T02:10:45.311Z,1012.69
2023-02-02T02:11:25.830Z,1012.62
2023-02-02T02:12:06.349Z,1012.57
2023-02-02T02:12:46.896Z,1012.58
2023-02-02T02:13:27.454Z,1012.57
2023-02-02T02:14:07.971Z,1012.58
2023-02-02T02:14:50.039Z,1012.59
2023-02-02T02:15:30.578Z,1012.67
2023-02-02T02:16:11.153Z,1012.65
2023-02-02T02:16:51.669Z,1012.55
2023-02-02T02:17:32.107Z,1012.6
2023-02-02T02:18:12.631Z,1012.68
2023-02-02T02:20:25.676Z,1012.56
2023-02-02T02:21:06.187Z,1012.47
2023-02-02T02:21:46.717Z,1012.51
2023-02-02T02:22:27.259Z,1012.52
2023-02-02T02:23:07.757Z,1012.56
2023-02-02T02:23:48.275Z,1012.53
2023-02-02T02:24:28.816Z,1012.46
2023-02-02T02:25:09.342Z,1012.39
2023-02-02T02:25:49.911Z,1012.56
2023-02-02T02:26:30.489Z,1012.48
2023-02-02T02:27:10.993Z,1012.49
2023-02-02T02:27:51.485Z,1012.56
2023-02-02T02:28:32.055Z,1012.47
2023-02-02T02:29:12.577Z,1012.52
2023-02-02T02:29:53.105Z,1012.5
2023-02-02T02:30:33.638Z,1012.58
2023-02-02T02:31:14.209Z,1012.53
2023-02-02T02:31:54.739Z,1012.48
2023-02-02T02:32:35.163Z,1012.59
2023-02-02T02:33:15.701Z,1012.61
2023-02-02T02:33:56.428Z,1012.52
2023-02-02T02:34:37.933Z,1012.56
2023-02-02T02:35:18.467Z,1012.54
2023-02-02T02:37:32.125Z,1012.66
2023-02-02T02:38:12.647Z,1012.64
2023-02-02T02:38:53.153Z,1012.64
2023-02-02T02:39:33.763Z,1012.59
2023-02-02T02:41:47.308Z,1012.61
2023-02-02T02:42:31.358Z,1012.71
2023-02-02T02:43:14.739Z,1012.72
2023-02-02T02:43:58.586Z,1012.67
2023-02-02T02:45:58.138Z,1012.68
2023-02-02T02:46:38.560Z,1012.6
2023-02-02T02:47:19.192Z,1012.66
2023-02-02T02:47:59.723Z,1012.67
2023-02-02T02:48:40.242Z,1012.6
2023-02-02T02:50:53.800Z,1012.61
2023-02-02T02:51:34.339Z,1012.6
2023-02-02T02:52:14.860Z,1012.65
2023-02-02T02:52:55.378Z,1012.51
2023-02-02T02:55:08.444Z,1012.58
2023-02-02T02:55:49.003Z,1012.53
2023-02-02T02:56:29.471Z,1012.61
2023-02-02T02:57:10.043Z,1012.59
2023-02-02T02:57:50.566Z,1012.6
2023-02-02T02:58:31.108Z,1012.5
2023-02-02T02:59:11.634Z,1012.56
2023-02-02T02:59:52.137Z,1012.56
2023-02-02T03:00:32.660Z,1012.58
2023-02-02T03:01:13.208Z,1012.58
2023-02-02T03:01:53.722Z,1012.48
2023-02-02T03:02:34.243Z,1012.56
2023-02-02T03:03:14.745Z,1012.51
2023-02-02T03:05:12.725Z,1012.38
2023-02-02T03:05:53.262Z,1012.49
2023-02-02T03:06:33.802Z,1012.48
2023-02-02T03:07:14.379Z,1012.55
2023-02-02T03:07:55.449Z,1012.54
2023-02-02T03:08:35.998Z,1012.56
2023-02-02T03:09:16.475Z,1012.58
2023-02-02T03:09:57.028Z,1012.68
2023-02-02T03:10:37.546Z,1012.69
2023-02-02T03:11:18.091Z,1012.64
2023-02-02T03:11:59.459Z,1012.68
2023-02-02T03:12:39.999Z,1012.67
2023-02-02T03:13:20.534Z,1012.71
2023-02-02T03:14:01.028Z,1012.81
2023-02-02T03:14:41.545Z,1012.61
2023-02-02T03:15:22.325Z,1012.68
2023-02-02T03:16:02.625Z,1012.71
2023-02-02T03:16:43.120Z,1012.71
2023-02-02T03:17:23.669Z,1012.56
2023-02-02T03:18:04.198Z,1012.68
2023-02-02T03:18:44.733Z,1012.72
2023-02-02T03:19:25.245Z,1012.74
2023-02-02T03:20:05.764Z,1012.71
2023-02-02T03:20:46.306Z,1012.65
2023-02-02T03:21:26.918Z,1012.69
2023-02-02T03:22:07.423Z,1012.66
2023-02-02T03:22:47.920Z,1012.65
2023-02-02T03:23:28.451Z,1012.7
2023-02-02T03:24:08.997Z,1012.64
2023-02-02T03:24:49.596Z,1012.73
2023-02-02T03:25:30.169Z,1012.64
2023-02-02T03:26:10.719Z,1012.67
2023-02-02T03:28:08.652Z,1012.68
2023-02-02T03:28:49.179Z,1012.66
2023-02-02T03:29:29.687Z,1012.64
2023-02-02T03:30:11.224Z,1012.81
2023-02-02T03:30:51.817Z,1012.71
2023-02-02T03:31:32.405Z,1012.63
2023-02-02T03:32:12.948Z,1012.59
2023-02-02T03:32:53.504Z,1012.61
2023-02-02T03:33:34.643Z,1012.68
2023-02-02T03:34:15.180Z,1012.57
2023-02-02T03:34:55.682Z,1012.7
2023-02-02T03:35:36.183Z,1012.57
2023-02-02T03:36:16.693Z,1012.7
2023-02-02T03:36:57.209Z,1012.75
2023-02-02T03:37:37.743Z,1012.69
2023-02-02T03:39:35.669Z,1012.77
2023-02-02T03:40:16.173Z,1012.73
2023-02-02T03:40:56.709Z,1012.69
2023-02-02T03:41:37.248Z,1012.71
2023-02-02T03:42:17.792Z,1012.71
2023-02-02T03:42:58.333Z,1012.76
2023-02-02T03:43:38.874Z,1012.74
2023-02-02T03:44:19.383Z,1012.77
2023-02-02T03:44:59.895Z,1012.79
2023-02-02T03:45:40.442Z,1012.83
2023-02-02T03:46:21.011Z,1012.79
2023-02-02T03:47:01.463Z,1012.79
2023-02-02T03:47:42.202Z,1012.8
2023-02-02T03:48:22.794Z,1012.8
2023-02-02T03:49:03.301Z,1012.83
2023-02-02T03:49:43.822Z,1012.82
2023-02-02T03:50:24.346Z,1012.94
2023-02-02T03:51:04.869Z,1012.86
2023-02-02T03:51:46.360Z,1012.87
2023-02-02T03:52:26.877Z,1012.92
2023-02-02T03:53:07.398Z,1012.92
2023-02-02T03:53:48.081Z,1012.84
2023-02-02T03:54:28.442Z,1012.84
2023-02-02T03:55:08.989Z,1012.81
2023-02-02T03:55:49.486Z,1012.82
2023-02-02T03:56:30.015Z,1012.82
2023-02-02T03:57:10.533Z,1012.72
2023-02-02T03:57:51.093Z,1012.83
2023-02-02T03:59:49.036Z,1012.76
2023-02-02T04:00:29.770Z,1012.79
2023-02-02T04:01:10.234Z,1012.74
2023-02-02T04:01:50.797Z,1012.73
2023-02-02T04:02:31.326Z,1012.75
2023-02-02T04:03:11.795Z,1012.7
2023-02-02T04:03:52.297Z,1012.77
2023-02-02T04:04:32.809Z,1012.61
2023-02-02T04:05:13.349Z,1012.63
2023-02-02T04:05:53.868Z,1012.61
2023-02-02T04:06:34.382Z,1012.63
2023-02-02T04:07:14.899Z,1012.65
2023-02-02T04:07:55.436Z,1012.74
2023-02-02T04:08:35.970Z,1012.67
2023-02-02T04:09:16.487Z,1012.72
2023-02-02T04:09:57.008Z,1012.7
2023-02-02T04:10:37.572Z,1012.64
2023-02-02T04:11:18.049Z,1012.78
2023-02-02T04:11:58.585Z,1012.66
2023-02-02T04:12:39.174Z,1012.78
2023-02-02T04:13:19.709Z,1012.75
2023-02-02T04:14:00.218Z,1012.88
2023-02-02T04:14:40.740Z,1012.76
2023-02-02T04:15:21.248Z,1012.76
2023-02-02T04:16:01.821Z,1012.88
2023-02-02T04:16:42.339Z,1012.83
2023-02-02T04:17:22.939Z,1012.75
2023-02-02T04:18:03.466Z,1012.8
2023-02-02T04:18:44.004Z,1012.83
2023-02-02T04:19:24.513Z,1012.79
2023-02-02T04:20:05.077Z,1012.79
2023-02-02T04:20:45.621Z,1012.82
2023-02-02T04:21:26.177Z,1012.88
2023-02-02T04:22:07.273Z,1012.87
2023-02-02T04:22:47.809Z,1012.9
2023-02-02T04:23:28.381Z,1012.92
2023-02-02T04:24:08.884Z,1012.86
2023-02-02T04:27:25.861Z,1012.8
2023-02-02T04:28:06.858Z,1012.85
2023-02-02T04:28:47.414Z,1012.8
2023-02-02T04:29:27.988Z,1012.79
2023-02-02T04:30:08.500Z,1012.76
2023-02-02T04:30:49.069Z,1012.79
2023-02-02T04:31:29.641Z,1012.91
2023-02-02T04:32:10.091Z,1012.83
2023-02-02T04:32:50.671Z,1012.86
2023-02-02T04:33:31.106Z,1012.91
2023-02-02T04:34:11.646Z,1012.83
2023-02-02T04:34:52.165Z,1012.92
2023-02-02T04:36:50.137Z,1012.95
2023-02-02T04:37:30.639Z,1012.97
2023-02-02T04:38:11.258Z,1012.89
2023-02-02T04:38:51.772Z,1012.89
2023-02-02T04:39:32.325Z,1012.96
2023-02-02T04:40:12.830Z,1012.98
2023-02-02T04:40:53.379Z,1012.93
2023-02-02T04:41:33.911Z,1012.93
2023-02-02T04:42:14.466Z,1012.92
2023-02-02T04:42:54.950Z,1012.92
2023-02-02T04:43:35.427Z,1012.92
2023-02-02T04:44:16.026Z,1012.83
2023-02-02T04:44:56.512Z,1012.96
2023-02-02T04:45:37.043Z,1012.91
2023-02-02T04:46:17.574Z,1012.97
2023-02-02T04:46:58.795Z,1012.99
2023-02-02T04:47:39.329Z,1012.99
2023-02-02T04:48:19.834Z,1012.95
2023-02-02T04:49:00.858Z,1013.01
2023-02-02T04:49:41.994Z,1012.93
2023-02-02T04:50:22.523Z,1013.02
2023-02-02T04:51:03.881Z,1013.03
2023-02-02T04:51:44.382Z,1012.99
2023-02-02T04:52:24.934Z,1013.03
2023-02-02T04:53:05.399Z,1012.95
2023-02-02T04:53:45.933Z,1013.02
2023-02-02T04:54:26.430Z,1013.07
2023-02-02T04:55:06.954Z,1013.03
2023-02-02T04:55:48.301Z,1012.96
2023-02-02T04:56:28.904Z,1013.08
2023-02-02T04:57:09.423Z,1013.07
2023-02-02T04:57:49.966Z,1013.17
2023-02-02T04:58:31.208Z,1013.09
2023-02-02T04:59:11.732Z,1013.09
2023-02-02T04:59:52.212Z,1013.08
2023-02-02T05:00:32.714Z,1013.06
2023-02-02T05:01:13.341Z,1012.99
2023-02-02T05:01:53.996Z,1013.1
2023-02-02T05:02:34.275Z,1013.07
2023-02-02T05:03:14.864Z,1013.09
2023-02-02T05:03:55.340Z,1013.03
2023-02-02T05:04:35.899Z,1013.1
2023-02-02T05:05:16.379Z,1013.03
2023-02-02T05:05:56.886Z,1013.1
2023-02-02T05:06:37.414Z,1013.08
2023-02-02T05:07:17.924Z,1013.05
2023-02-02T05:07:59.109Z,1013.12
2023-02-02T05:08:40.249Z,1013.05
2023-02-02T05:09:20.767Z,1013.1
2023-02-02T05:11:33.864Z,1013.1
2023-02-02T05:12:14.361Z,1013.1
2023-02-02T05:12:54.884Z,1013.1
2023-02-02T05:13:35.435Z,1013.07
2023-02-02T05:14:15.955Z,1013.07
2023-02-02T05:14:56.463Z,1013.12
2023-02-02T05:15:36.977Z,1013.14
2023-02-02T05:16:17.530Z,1013.13
2023-02-02T05:16:58.030Z,1013.09
2023-02-02T05:17:38.531Z,1013.07
2023-02-02T05:18:19.047Z,1013.16
2023-02-02T05:18:59.677Z,1013.09
2023-02-02T05:19:40.091Z,1013.05
2023-02-02T05:20:20.613Z,1013.12
2023-02-02T05:22:18.562Z,1013.19
2023-02-02T05:22:59.092Z,1013.13
2023-02-02T05:23:39.602Z,1013.25
2023-02-02T05:24:20.151Z,1013.26
2023-02-02T05:25:00.806Z,1013.28
2023-02-02T05:25:41.255Z,1013.25
2023-02-02T05:26:21.846Z,1013.26
2023-02-02T05:27:02.308Z,1013.32
2023-02-02T05:27:43.314Z,1013.38
2023-02-02T05:28:23.864Z,1013.39
2023-02-02T05:29:04.440Z,1013.35
2023-02-02T05:29:45.066Z,1013.29
2023-02-02T05:31:42.944Z,1013.29
2023-02-02T05:32:23.411Z,1013.32
2023-02-02T05:33:03.912Z,1013.36
2023-02-02T05:33:44.414Z,1013.37
2023-02-02T05:34:24.933Z,1013.33
2023-02-02T05:35:05.462Z,1013.38
2023-02-02T05:35:45.979Z,1013.31
2023-02-02T05:36:26.689Z,1013.32
2023-02-02T05:37:07.169Z,1013.34
2023-02-02T05:37:47.685Z,1013.34
2023-02-02T05:38:28.222Z,1013.37
2023-02-02T05:39:08.727Z,1013.4
2023-02-02T05:39:49.266Z,1013.39
2023-02-02T05:40:29.793Z,1013.4
2023-02-02T05:41:10.349Z,1013.37
2023-02-02T05:41:50.872Z,1013.46
2023-02-02T05:42:31.398Z,1013.29
2023-02-02T05:43:11.959Z,1013.39
2023-02-02T05:43:52.441Z,1013.42
2023-02-02T05:44:32.994Z,1013.45
2023-02-02T05:45:13.506Z,1013.4
2023-02-02T05:45:54.071Z,1013.48
2023-02-02T05:46:34.544Z,1013.45
2023-02-02T05:47:15.071Z,1013.36
2023-02-02T05:47:55.582Z,1013.41
2023-02-02T05:48:36.118Z,1013.36
2023-02-02T05:49:16.671Z,1013.39
2023-02-02T05:49:57.191Z,1013.38
2023-02-02T05:50:37.743Z,1013.45
2023-02-02T05:51:18.296Z,1013.43
2023-02-02T05:51:58.772Z,1013.47
2023-02-02T05:52:39.298Z,1013.47
2023-02-02T05:53:19.866Z,1013.43
2023-02-02T05:54:01.318Z,1013.49
2023-02-02T05:54:42.680Z,1013.48
2023-02-02T05:55:23.562Z,1013.49
2023-02-02T05:56:03.724Z,1013.45
2023-02-02T05:56:44.232Z,1013.49
2023-02-02T05:57:24.751Z,1013.4
2023-02-02T05:58:05.269Z,1013.41
2023-02-02T05:58:45.815Z,1013.48
2023-02-02T05:59:26.344Z,1013.46
2023-02-02T06:00:06.912Z,1013.51
2023-02-02T06:00:47.537Z,1013.44
2023-02-02T06:01:28.919Z,1013.45
2023-02-02T06:02:09.458Z,1013.44
2023-02-02T06:02:49.968Z,1013.47
2023-02-02T06:03:30.690Z,1013.46
2023-02-02T06:04:11.057Z,1013.45
2023-02-02T06:04:51.556Z,1013.56
2023-02-02T06:06:49.521Z,1013.48
2023-02-02T06:07:30.059Z,1013.46
2023-02-02T06:08:10.622Z,1013.4
2023-02-02T06:08:51.357Z,1013.58
2023-02-02T06:09:31.879Z,1013.47
2023-02-02T06:10:12.392Z,1013.51
2023-02-02T06:10:53.053Z,1013.54
2023-02-02T06:11:33.585Z,1013.58
2023-02-02T06:12:14.123Z,1013.53
2023-02-02T06:12:54.664Z,1013.55
2023-02-02T06:13:35.144Z,1013.57
2023-02-02T06:14:15.691Z,1013.57
2023-02-02T06:14:56.229Z,1013.58
2023-02-02T06:15:36.801Z,1013.59
2023-02-02T06:16:17.403Z,1013.65
2023-02-02T06:16:57.776Z,1013.61
2023-02-02T06:17:38.273Z,1013.62
2023-02-02T06:18:18.797Z,1013.65
2023-02-02T06:19:00.003Z,1013.69
2023-02-02T06:19:40.499Z,1013.68
2023-02-02T06:20:22.453Z,1013.58
2023-02-02T06:21:01.591Z,1013.72
2023-02-02T06:21:42.124Z,1013.7
2023-02-02T06:22:22.631Z,1013.74
2023-02-02T06:23:03.143Z,1013.72
2023-02-02T06:23:43.635Z,1013.76
2023-02-02T06:24:24.307Z,1013.71
2023-02-02T06:25:04.805Z,1013.81
2023-02-02T06:25:45.331Z,1013.69
2023-02-02T06:26:25.836Z,1013.72
2023-02-02T06:27:06.337Z,1013.78
2023-02-02T06:27:46.873Z,1013.79
2023-02-02T06:28:27.364Z,1013.72
2023-02-02T06:29:07.901Z,1013.72
2023-02-02T06:29:48.460Z,1013.75
2023-02-02T06:30:29.018Z,1013.71
2023-02-02T06:31:09.660Z,1013.71
2023-02-02T06:31:50.120Z,1013.63
2023-02-02T06:32:30.543Z,1013.66
2023-02-02T06:33:11.095Z,1013.58
2023-02-02T06:33:52.270Z,1013.67
2023-02-02T06:34:32.895Z,1013.64
2023-02-02T06:35:13.335Z,1013.65
2023-02-02T06:35:53.824Z,1013.62
2023-02-02T06:36:34.428Z,1013.71
2023-02-02T06:37:14.927Z,1013.65
2023-02-02T06:37:55.489Z,1013.58
2023-02-02T06:38:36.039Z,1013.67
2023-02-02T06:39:16.611Z,1013.59
2023-02-02T06:39:57.120Z,1013.6
2023-02-02T06:40:37.666Z,1013.55
2023-02-02T06:41:18.158Z,1013.52
2023-02-02T06:42:01.982Z,1013.48
2023-02-02T06:42:39.238Z,1013.49
2023-02-02T06:43:19.763Z,1013.5
2023-02-02T06:44:00.309Z,1013.59
2023-02-02T06:44:40.778Z,1013.52
2023-02-02T06:45:21.330Z,1013.57
2023-02-02T06:46:02.044Z,1013.63
2023-02-02T06:46:42.441Z,1013.56
2023-02-02T06:47:22.932Z,1013.61
2023-02-02T06:48:03.501Z,1013.6
2023-02-02T06:48:43.986Z,1013.56
2023-02-02T06:49:24.511Z,1013.54
2023-02-02T06:50:05.019Z,1013.61
2023-02-02T06:50:45.538Z,1013.49
2023-02-02T06:51:26.084Z,1013.5
2023-02-02T06:52:06.642Z,1013.57
2023-02-02T06:52:47.182Z,1013.52
2023-02-02T06:53:27.743Z,1013.58
2023-02-02T06:54:08.244Z,1013.54
2023-02-02T06:54:48.742Z,1013.62
2023-02-02T06:55:29.293Z,1013.42
2023-02-02T06:56:09.852Z,1013.51
2023-02-02T06:56:50.391Z,1013.48
2023-02-02T06:57:30.935Z,1013.5
2023-02-02T06:58:11.477Z,1013.47
2023-02-02T06:58:51.979Z,1013.45
2023-02-02T06:59:32.540Z,1013.5
2023-02-02T07:00:13.173Z,1013.5
2023-02-02T07:00:53.665Z,1013.42
2023-02-02T07:01:34.329Z,1013.48
2023-02-02T07:02:14.815Z,1013.46
2023-02-02T07:02:55.319Z,1013.37
2023-02-02T07:03:35.837Z,1013.44
2023-02-02T07:04:16.353Z,1013.42
2023-02-02T07:04:56.896Z,1013.39
2023-02-02T07:05:37.432Z,1013.39
2023-02-02T07:06:17.978Z,1013.43
2023-02-02T07:08:15.915Z,1013.44
2023-02-02T07:08:59.624Z,1013.5
2023-02-02T07:09:37.582Z,1013.54
2023-02-02T07:11:08.396Z,1013.47
2023-02-02T07:11:09.552Z,1013.48
2023-02-02T07:11:39.834Z,1013.47
2023-02-02T07:12:19.775Z,1013.45
2023-02-02T07:13:00.283Z,1013.43
2023-02-02T07:13:41.698Z,1013.5
2023-02-02T07:14:22.221Z,1013.54
2023-02-02T07:15:02.734Z,1013.43
2023-02-02T07:15:43.332Z,1013.48
2023-02-02T07:16:23.911Z,1013.44
2023-02-02T07:17:04.354Z,1013.42
2023-02-02T07:17:44.965Z,1013.45
2023-02-02T07:18:25.458Z,1013.61
2023-02-02T07:19:06.051Z,1013.6
2023-02-02T07:19:46.532Z,1013.65
2023-02-02T07:20:27.048Z,1013.67
2023-02-02T07:21:07.602Z,1013.75
2023-02-02T07:21:48.114Z,1013.69
2023-02-02T07:22:28.627Z,1013.7
2023-02-02T07:23:09.139Z,1013.73
2023-02-02T07:23:49.640Z,1013.73
2023-02-02T07:24:30.139Z,1013.65
2023-02-02T07:25:10.694Z,1013.73
2023-02-02T07:25:51.250Z,1013.72
2023-02-02T07:26:31.837Z,1013.66
2023-02-02T07:27:12.289Z,1013.74
2023-02-02T07:27:52.859Z,1013.71
2023-02-02T07:29:50.826Z,1013.71
2023-02-02T07:30:31.390Z,1013.76
2023-02-02T07:31:12.013Z,1013.68
2023-02-02T07:31:52.423Z,1013.68
2023-02-02T07:32:32.928Z,1013.72
2023-02-02T07:33:13.497Z,1013.73
2023-02-02T07:33:54.284Z,1013.72
2023-02-02T07:34:34.819Z,1013.73
2023-02-02T07:35:15.375Z,1013.67
2023-02-02T07:35:55.890Z,1013.71
2023-02-02T07:36:36.431Z,1013.77
2023-02-02T07:37:17.003Z,1013.74
2023-02-02T07:37:57.555Z,1013.71
2023-02-02T07:38:38.091Z,1013.69
2023-02-02T07:39:18.646Z,1013.68
2023-02-02T07:39:59.195Z,1013.7
2023-02-02T07:40:39.737Z,1013.67
2023-02-02T07:42:37.741Z,1013.59
2023-02-02T07:43:18.300Z,1013.53
2023-02-02T07:43:58.816Z,1013.48
2023-02-02T07:44:39.497Z,1013.55
2023-02-02T07:45:26.739Z,1013.51
2023-02-02T07:46:00.599Z,1013.54
2023-02-02T07:46:41.151Z,1013.5
2023-02-02T07:48:54.210Z,1013.63
2023-02-02T07:49:34.767Z,1013.7
2023-02-02T07:50:16.928Z,1013.68
2023-02-02T07:50:57.437Z,1013.71
2023-02-02T07:53:10.490Z,1013.71
2023-02-02T07:53:50.994Z,1013.67
2023-02-02T07:54:31.551Z,1013.81
2023-02-02T07:55:25.990Z,1013.71
2023-02-02T07:55:52.596Z,1013.76
2023-02-02T07:56:33.247Z,1013.69
2023-02-02T07:57:13.751Z,1013.77
2023-02-02T07:57:54.276Z,1013.72
2023-02-02T07:58:34.793Z,1013.8
2023-02-02T07:59:15.332Z,1013.72
2023-02-02T07:59:55.851Z,1013.79
2023-02-02T08:00:36.407Z,1013.8
2023-02-02T08:01:16.920Z,1013.8
2023-02-02T08:01:57.450Z,1013.82
2023-02-02T08:02:38.741Z,1013.87
2023-02-02T08:03:19.256Z,1013.93
2023-02-02T08:03:59.809Z,1013.94
2023-02-02T08:04:40.331Z,1013.95
2023-02-02T08:05:20.876Z,1013.95
2023-02-02T08:06:01.434Z,1013.98
2023-02-02T08:06:41.935Z,1013.95
2023-02-02T08:09:11.162Z,1013.98
2023-02-02T08:09:54.005Z,1013.99
2023-02-02T08:10:35.136Z,1014.03
2023-02-02T08:11:15.681Z,1014.05
2023-02-02T08:13:28.590Z,1014.08
2023-02-02T08:14:09.144Z,1014.11
2023-02-02T08:14:49.689Z,1014.15
2023-02-02T08:15:30.229Z,1014.16
2023-02-02T08:16:10.917Z,1014.2
2023-02-02T08:16:51.345Z,1014.26
2023-02-02T08:17:31.892Z,1014.29
2023-02-02T08:18:12.449Z,1014.21
2023-02-02T08:18:52.992Z,1014.31
2023-02-02T08:19:33.676Z,1014.34
2023-02-02T08:20:14.201Z,1014.37
2023-02-02T08:20:54.717Z,1014.38
2023-02-02T08:21:35.304Z,1014.36
2023-02-02T08:23:33.260Z,1014.43
2023-02-02T08:24:13.919Z,1014.44
2023-02-02T08:24:55.501Z,1014.44
2023-02-02T08:25:36.064Z,1014.44
2023-02-02T08:26:17.334Z,1014.43
2023-02-02T08:28:30.785Z,1014.45
2023-02-02T08:29:11.467Z,1014.43
2023-02-02T08:29:52.093Z,1014.48
2023-02-02T08:30:32.835Z,1014.53
2023-02-02T08:31:14.190Z,1014.42
2023-02-02T08:31:54.774Z,1014.44
2023-02-02T08:32:35.410Z,1014.51
2023-02-02T08:33:16.067Z,1014.43
2023-02-02T08:33:56.743Z,1014.49
2023-02-02T08:34:37.301Z,1014.54
2023-02-02T08:35:17.813Z,1014.45
2023-02-02T08:35:58.388Z,1014.5
2023-02-02T08:36:39.137Z,1014.45
2023-02-02T08:37:19.847Z,1014.44
2023-02-02T08:38:01.071Z,1014.49
2023-02-02T08:38:41.775Z,1014.49
2023-02-02T08:39:22.459Z,1014.53
2023-02-02T08:40:03.227Z,1014.54
2023-02-02T08:40:44.355Z,1014.55
2023-02-02T08:41:25.077Z,1014.56
2023-02-02T08:42:05.781Z,1014.63
2023-02-02T08:42:46.434Z,1014.59
2023-02-02T08:43:27.010Z,1014.63
2023-02-02T08:46:00.983Z,1014.56
2023-02-02T08:46:06.046Z,1014.64
2023-02-02T08:46:46.556Z,1014.6
2023-02-02T08:47:27.114Z,1014.61
2023-02-02T08:48:11.900Z,1014.63
2023-02-02T08:48:48.636Z,1014.61
2023-02-02T08:49:29.296Z,1014.59
2023-02-02T08:50:09.912Z,1014.55
2023-02-02T08:50:51.392Z,1014.57
2023-02-02T08:51:31.959Z,1014.51
2023-02-02T08:52:12.737Z,1014.54
2023-02-02T08:52:53.450Z,1014.53
2023-02-02T08:53:34.107Z,1014.55
2023-02-02T08:54:14.741Z,1014.41
2023-02-02T08:54:55.309Z,1014.42
2023-02-02T08:55:35.843Z,1014.36
2023-02-02T08:56:16.461Z,1014.36
2023-02-02T08:58:32.349Z,1014.43
2023-02-02T08:59:15.719Z,1014.45
2023-02-02T08:59:58.728Z,1014.5
2023-02-02T09:00:46.905Z,1014.51
2023-02-02T09:01:27.635Z,1014.47
2023-02-02T09:02:11.759Z,1014.62
2023-02-02T09:02:54.091Z,1014.53
2023-02-02T09:03:36.466Z,1014.57
2023-02-02T09:04:17.853Z,1014.47
2023-02-02T09:05:02.395Z,1014.49
2023-02-02T09:05:45.063Z,1014.53
2023-02-02T09:08:17.627Z,1014.54
2023-02-02T09:08:58.155Z,1014.51
2023-02-02T09:09:38.912Z,1014.52
2023-02-02T09:10:19.519Z,1014.52
2023-02-02T09:11:00.113Z,1014.56
2023-02-02T09:11:40.725Z,1014.53
2023-02-02T09:12:21.580Z,1014.46